Time;durP1;ratioP1;P1;durP2;ratioP2;P2;SDS_P1;SDS_P2;PMS_P1;PMS_P2;Temp;Humidity;BMP_temperature;BMP_pressure;BME280_temperature;BME280_humidity;BME280_pressure;Samples;Min_cycle;Max_cycle;Signal;HPM_P1;HPM_P2
2023/07/22 00:01:59;;;;;;;;;;;;;;;15.21;100.00;101298.53;10498555;28;19925;-63
2023/07/22 00:07:01;;;;;;;;;;;;;;;15.10;100.00;101301.94;10498464;28;20367;-63
2023/07/22 00:12:03;;;;;;;;;;;;;;;15.14;100.00;101302.56;10517397;22;19924;-60
2023/07/22 00:17:06;;;;;;;;;;;;;;;15.43;97.32;101303.16;10539895;28;19934;-61
2023/07/22 00:22:08;;;;;;;;;;;;;;;15.09;99.37;101294.97;10538618;28;19932;-61
2023/07/22 00:27:10;;;;;;;;;;;;;;;15.10;100.00;101286.09;10539884;28;19924;-61
2023/07/22 00:32:13;;;;;;;;;;;;;;;14.73;100.00;101291.25;10539392;28;20374;-61
2023/07/22 00:37:16;;;;;;;;;;;;;;;14.72;100.00;101289.53;10539760;28;19934;-61
2023/07/22 00:42:18;;;;;;;;;;;;;;;14.44;100.00;101282.59;10539351;28;19924;-61
2023/07/22 00:47:21;;;;;;;;;;;;;;;14.49;100.00;101283.13;10539277;28;19924;-61
2023/07/22 00:52:23;;;;;;;;;;;;;;;14.60;100.00;101280.66;10539292;28;19939;-61
2023/07/22 00:57:25;;;;;;;;;;;;;;;14.42;100.00;101279.22;10539049;28;19935;-61
2023/07/22 01:02:27;;;;;;;;;;;;;;;14.70;100.00;101280.06;10539234;28;19931;-61
2023/07/22 01:07:30;;;;;;;;;;;;;;;14.92;100.00;101276.81;10538787;28;19959;-60
2023/07/22 01:12:32;;;;;;;;;;;;;;;15.27;94.28;101270.91;10538457;28;19931;-60
2023/07/22 01:17:36;;;;;;;;;;;;;;;15.41;90.80;101262.84;10544616;28;19924;-61
2023/07/22 01:22:38;;;;;;;;;;;;;;;15.12;91.30;101255.19;10544927;28;19924;-60
2023/07/22 01:27:40;;;;;;;;;;;;;;;15.06;91.65;101255.59;10544973;28;19930;-60
2023/07/22 01:32:43;;;;;;;;;;;;;;;15.22;89.74;101250.97;10545541;28;20015;-60
2023/07/22 01:37:45;;;;;;;;;;;;;;;15.03;91.72;101254.03;10544684;28;19928;-60
2023/07/22 01:42:47;;;;;;;;;;;;;;;15.03;93.59;101256.69;10545489;28;19931;-60
2023/07/22 01:47:49;;;;;;;;;;;;;;;14.95;94.64;101248.44;10545206;28;19931;-60
2023/07/22 01:52:52;;;;;;;;;;;;;;;14.82;95.12;101242.31;10543662;28;19924;-60
2023/07/22 01:57:54;;;;;;;;;;;;;;;14.96;92.26;101236.09;10544720;28;20367;-60
2023/07/22 02:02:56;;;;;;;;;;;;;;;15.06;93.45;101247.69;10544678;28;19931;-60
2023/07/22 02:07:59;;;;;;;;;;;;;;;15.01;92.43;101236.63;10544430;28;20406;-60
2023/07/22 02:13:03;;;;;;;;;;;;;;;14.83;95.18;101239.59;10543843;28;19972;-60
2023/07/22 02:18:05;;;;;;;;;;;;;;;14.95;95.23;101248.44;10543925;28;20274;-60
2023/07/22 02:23:07;;;;;;;;;;;;;;;14.98;95.45;101247.41;10543731;28;19924;-61
2023/07/22 02:28:11;;;;;;;;;;;;;;;15.00;96.36;101237.59;10542521;28;19928;-61
2023/07/22 02:33:13;;;;;;;;;;;;;;;15.16;95.02;101235.59;10543427;28;19961;-61
2023/07/22 02:38:16;;;;;;;;;;;;;;;15.03;94.66;101238.22;10543327;28;19928;-61
2023/07/22 02:43:18;;;;;;;;;;;;;;;15.18;93.82;101230.16;10542845;28;19924;-61
2023/07/22 02:48:20;;;;;;;;;;;;;;;15.04;96.78;101231.97;10542743;28;19924;-61
2023/07/22 02:53:22;;;;;;;;;;;;;;;14.93;97.90;101236.31;10541261;28;20415;-61
2023/07/22 02:58:25;;;;;;;;;;;;;;;14.97;97.24;101237.78;10542436;28;19931;-61
2023/07/22 03:03:27;;;;;;;;;;;;;;;15.04;98.26;101242.53;10541191;28;20016;-61
2023/07/22 03:08:29;;;;;;;;;;;;;;;14.98;95.92;101235.06;10541862;28;19924;-61
2023/07/22 03:13:33;;;;;;;;;;;;;;;14.94;98.47;101241.47;10540180;28;19924;-61
2023/07/22 03:18:36;;;;;;;;;;;;;;;14.85;96.23;101242.13;10541708;28;19967;-61
2023/07/22 03:23:38;;;;;;;;;;;;;;;14.84;100.00;101248.31;10541315;28;19931;-61
2023/07/22 03:28:41;;;;;;;;;;;;;;;14.63;99.10;101246.22;10541446;28;19924;-61
2023/07/22 03:33:46;;;;;;;;;;;;;;;14.66;100.00;101248.63;10541073;28;19928;-61
2023/07/22 03:38:48;;;;;;;;;;;;;;;14.82;97.48;101244.97;10540807;28;19924;-61
2023/07/22 03:43:50;;;;;;;;;;;;;;;14.70;97.86;101253.72;10540795;28;19939;-61
2023/07/22 03:48:54;;;;;;;;;;;;;;;14.75;99.10;101248.97;10540419;28;19946;-61
2023/07/22 03:53:56;;;;;;;;;;;;;;;14.52;100.00;101247.84;10540407;28;20026;-60
2023/07/22 03:58:58;;;;;;;;;;;;;;;14.64;100.00;101250.53;10540386;28;19928;-61
2023/07/22 04:04:00;;;;;;;;;;;;;;;14.66;99.58;101256.53;10540340;28;19924;-61
2023/07/22 04:09:03;;;;;;;;;;;;;;;14.62;99.98;101249.78;10540194;28;19931;-61
2023/07/22 04:14:05;;;;;;;;;;;;;;;14.84;98.72;101251.84;10539687;28;19924;-60
2023/07/22 04:19:07;;;;;;;;;;;;;;;14.49;100.00;101256.78;10539949;28;20011;-61
2023/07/22 04:24:10;;;;;;;;;;;;;;;14.79;98.93;101250.44;10539718;28;20305;-61
2023/07/22 04:29:12;;;;;;;;;;;;;;;14.88;96.80;101241.91;10539858;28;19977;-61
2023/07/22 04:34:15;;;;;;;;;;;;;;;14.69;95.13;101247.56;10539428;28;20272;-61
2023/07/22 04:39:17;;;;;;;;;;;;;;;14.70;96.95;101261.63;10539754;28;19924;-60
2023/07/22 04:44:19;;;;;;;;;;;;;;;14.83;93.74;101258.03;10539708;28;19931;-60
2023/07/22 04:49:22;;;;;;;;;;;;;;;15.05;93.30;101248.66;10540118;28;19924;-61
2023/07/22 04:54:24;;;;;;;;;;;;;;;14.72;98.46;101259.72;10547234;28;20377;-60
2023/07/22 04:59:26;;;;;;;;;;;;;;;14.50;97.96;101256.69;10547140;28;19932;-60
2023/07/22 05:04:29;;;;;;;;;;;;;;;14.66;98.12;101274.16;10547173;28;19938;-61
2023/07/22 05:09:31;;;;;;;;;;;;;;;14.80;97.55;101273.22;10546652;28;20359;-60
2023/07/22 05:14:33;;;;;;;;;;;;;;;14.94;95.93;101264.38;10546369;28;20291;-60
2023/07/22 05:19:35;;;;;;;;;;;;;;;14.81;95.41;101259.94;10546435;28;19924;-60
2023/07/22 05:24:37;;;;;;;;;;;;;;;15.02;91.27;101260.25;10544936;28;19924;-60
2023/07/22 05:29:40;;;;;;;;;;;;;;;15.03;95.71;101254.03;10545062;28;20003;-61
2023/07/22 05:34:42;;;;;;;;;;;;;;;15.17;95.97;101255.72;10545705;28;19924;-60
2023/07/22 05:39:45;;;;;;;;;;;;;;;15.34;91.67;101261.63;10545730;28;19931;-60
2023/07/22 05:44:48;;;;;;;;;;;;;;;15.30;92.47;101262.75;10545423;28;19924;-60
2023/07/22 05:49:50;;;;;;;;;;;;;;;15.52;92.08;101270.03;10543965;28;19925;-61
2023/07/22 05:54:52;;;;;;;;;;;;;;;15.53;92.66;101259.38;10545144;28;19931;-60
2023/07/22 05:59:54;;;;;;;;;;;;;;;15.42;92.28;101265.41;10544620;28;19924;-61
2023/07/22 06:05:09;;;;;;;;;;;;;;;15.63;92.57;101262.19;10544590;28;19970;-61
2023/07/22 06:10:11;;;;;;;;;;;;;;;15.76;91.39;101252.47;10544283;28;19924;-61
2023/07/22 06:15:14;;;;;;;;;;;;;;;15.96;91.18;101255.47;10543968;28;19924;-60
2023/07/22 06:20:16;;;;;;;;;;;;;;;16.33;88.85;101255.41;10544040;28;19955;-61
2023/07/22 06:25:18;;;;;;;;;;;;;;;16.67;87.49;101248.41;10543610;28;20363;-61
2023/07/22 06:30:20;;;;;;;;;;;;;;;16.48;87.54;101253.41;10543401;28;19983;-61
2023/07/22 06:35:23;;;;;;;;;;;;;;;16.41;88.56;101250.38;10542166;28;19928;-61
2023/07/22 06:40:25;;;;;;;;;;;;;;;16.41;90.27;101245.09;10543325;28;20023;-61
2023/07/22 06:45:27;;;;;;;;;;;;;;;16.64;86.62;101250.44;10542799;28;20425;-61
2023/07/22 06:50:29;;;;;;;;;;;;;;;17.07;86.20;101245.38;10542733;28;19924;-61
2023/07/22 06:55:32;;;;;;;;;;;;;;;17.23;86.01;101242.38;10541202;28;19924;-61
2023/07/22 07:00:34;;;;;;;;;;;;;;;17.19;84.81;101240.91;10542301;28;19924;-61
2023/07/22 07:05:36;;;;;;;;;;;;;;;17.52;84.48;101241.03;10542306;28;19924;-61
2023/07/22 07:10:41;;;;;;;;;;;;;;;17.85;82.99;101226.03;10542041;28;19925;-60
2023/07/22 07:15:48;;;;;;;;;;;;;;;18.14;82.08;101243.06;10540942;28;19924;-61
2023/07/22 07:20:51;;;;;;;;;;;;;;;18.13;82.83;101243.19;10541504;28;19977;-61
2023/07/22 07:25:53;;;;;;;;;;;;;;;18.44;83.13;101238.84;10541413;28;20011;-61
2023/07/22 07:30:58;;;;;;;;;;;;;;;19.03;79.37;101226.81;10541348;28;19931;-60
2023/07/22 07:36:00;;;;;;;;;;;;;;;18.90;75.39;101228.81;10540954;28;19924;-60
2023/07/22 07:41:03;;;;;;;;;;;;;;;18.80;78.16;101233.22;10540841;28;20274;-60
2023/07/22 07:46:32;;;;;;;;;;;;;;;18.87;78.96;101229.91;10540827;28;19924;-61
2023/07/22 07:51:34;;;;;;;;;;;;;;;19.34;76.78;101233.91;10535202;28;19931;-61
2023/07/22 07:56:36;;;;;;;;;;;;;;;19.60;75.56;101221.81;10540437;28;19931;-61
2023/07/22 08:01:41;;;;;;;;;;;;;;;19.77;76.92;101222.13;10540226;28;20378;-61
2023/07/22 08:06:44;;;;;;;;;;;;;;;19.60;78.50;101224.47;10540622;28;20270;-61
2023/07/22 08:11:47;;;;;;;;;;;;;;;20.07;77.07;101230.97;10538533;28;20378;-61
2023/07/22 08:16:49;;;;;;;;;;;;;;;20.28;77.09;101229.03;10539898;28;19924;-61
2023/07/22 08:21:51;;;;;;;;;;;;;;;19.87;74.76;101228.31;10539816;28;20011;-61
2023/07/22 08:26:54;;;;;;;;;;;;;;;19.60;77.94;101240.41;10545089;28;19924;-61
2023/07/22 08:31:56;;;;;;;;;;;;;;;19.66;77.16;101244.31;10548190;28;19924;-61
2023/07/22 08:36:58;;;;;;;;;;;;;;;19.98;75.20;101238.81;10548175;28;19924;-61
2023/07/22 08:42:01;;;;;;;;;;;;;;;20.10;73.14;101234.19;10547810;28;20355;-61
2023/07/22 08:47:06;;;;;;;;;;;;;;;20.28;72.11;101234.34;10547632;28;19924;-61
2023/07/22 08:52:08;;;;;;;;;;;;;;;20.03;72.17;101231.25;10546321;28;19928;-61
2023/07/22 08:57:11;;;;;;;;;;;;;;;20.11;72.99;101235.06;10546091;28;19928;-61
2023/07/22 09:02:13;;;;;;;;;;;;;;;20.35;69.72;101232.78;10547031;28;19924;-61
2023/07/22 09:07:15;;;;;;;;;;;;;;;21.09;70.37;101251.72;10545852;28;19930;-61
2023/07/22 09:12:18;;;;;;;;;;;;;;;21.00;70.84;101237.44;10546341;28;19935;-61
2023/07/22 09:17:20;;;;;;;;;;;;;;;20.99;68.03;101234.94;10545321;28;20382;-61
2023/07/22 09:22:26;;;;;;;;;;;;;;;20.98;68.45;101234.09;10546358;28;20026;-60
2023/07/22 09:27:34;;;;;;;;;;;;;;;20.84;68.59;101231.91;10546295;28;19931;-61
2023/07/22 09:32:40;;;;;;;;;;;;;;;20.57;65.62;101233.47;10546304;28;19939;-61
2023/07/22 09:37:42;;;;;;;;;;;;;;;20.70;65.87;101230.53;10545394;28;20003;-62
2023/07/22 09:42:49;;;;;;;;;;;;;;;20.75;67.29;101230.94;10545592;28;19924;-61
2023/07/22 09:47:51;;;;;;;;;;;;;;;21.00;66.48;101236.59;10544496;28;19924;-61
2023/07/22 09:52:55;;;;;;;;;;;;;;;20.20;65.03;101227.06;10545151;28;20023;-61
2023/07/22 09:57:59;;;;;;;;;;;;;;;21.18;65.14;101223.34;10544886;28;19928;-61
2023/07/22 10:03:02;;;;;;;;;;;;;;;21.23;63.69;101221.09;10544930;28;19924;-62
2023/07/22 10:08:05;;;;;;;;;;;;;;;20.82;63.19;101224.06;10543260;28;20015;-61
2023/07/22 10:13:07;;;;;;;;;;;;;;;21.00;62.12;101217.97;10544285;28;19928;-62
2023/07/22 10:18:10;;;;;;;;;;;;;;;21.45;62.63;101220.72;10544204;28;19924;-61
2023/07/22 10:23:14;;;;;;;;;;;;;;;21.94;60.48;101207.09;10543890;28;20015;-62
2023/07/22 10:28:16;;;;;;;;;;;;;;;21.63;60.21;101219.94;10543771;28;19924;-61
2023/07/22 10:33:18;;;;;;;;;;;;;;;21.13;61.56;101218.47;10543225;28;19960;-61
2023/07/22 10:38:25;;;;;;;;;;;;;;;21.80;59.85;101218.25;10543512;28;19931;-61
2023/07/22 10:43:29;;;;;;;;;;;;;;;21.62;60.86;101211.09;10543204;28;19931;-61
2023/07/22 10:48:36;;;;;;;;;;;;;;;22.04;59.47;101209.66;10541901;28;20294;-61
2023/07/22 10:53:45;;;;;;;;;;;;;;;22.39;58.83;101192.81;10542586;28;20399;-61
2023/07/22 10:58:47;;;;;;;;;;;;;;;23.16;57.17;101182.22;10542672;28;19924;-62
2023/07/22 11:04:08;;;;;;;;;;;;;;;23.19;56.52;101192.59;10542355;28;19924;-61
2023/07/22 11:14:31;;;;;;;;;;;;;;;22.41;58.85;101177.50;10541483;28;19930;-61
2023/07/22 11:19:33;;;;;;;;;;;;;;;23.18;57.76;101174.91;10541504;28;19924;-62
2023/07/22 11:24:35;;;;;;;;;;;;;;;22.69;58.35;101171.16;10540183;28;20018;-61
2023/07/22 11:29:38;;;;;;;;;;;;;;;22.97;57.87;101166.44;10541210;28;20016;-61
2023/07/22 11:34:40;;;;;;;;;;;;;;;23.40;57.19;101172.63;10541285;28;19931;-60
2023/07/22 11:39:43;;;;;;;;;;;;;;;23.14;57.34;101162.88;10540913;28;19924;-60
2023/07/22 11:44:46;;;;;;;;;;;;;;;23.56;56.38;101161.97;10541076;28;19924;-60
2023/07/22 11:49:48;;;;;;;;;;;;;;;24.05;56.07;101150.50;10540642;28;19934;-61
2023/07/22 11:54:50;;;;;;;;;;;;;;;22.86;55.53;101151.53;10540473;28;20374;-61
2023/07/22 11:59:53;;;;;;;;;;;;;;;23.81;55.39;101150.50;10540155;28;19924;-61
2023/07/22 12:05:03;;;;;;;;;;;;;;;24.76;53.67;101147.22;10539031;28;20379;-61
2023/07/22 12:10:06;;;;;;;;;;;;;;;24.70;51.04;101153.28;10540229;28;19924;-61
2023/07/22 12:15:08;;;;;;;;;;;;;;;24.65;50.84;101140.41;10539762;28;19935;-60
2023/07/22 12:20:11;;;;;;;;;;;;;;;24.96;50.22;101134.25;10540127;28;19928;-61
2023/07/22 12:25:13;;;;;;;;;;;;;;;26.69;48.91;101114.94;10539749;28;20371;-61
2023/07/22 12:30:15;;;;;;;;;;;;;;;25.47;47.37;101123.09;10506063;22;19967;-61
2023/07/22 12:35:20;;;;;;;;;;;;;;;27.38;47.10;101111.84;10480563;28;19924;-61
2023/07/22 12:40:23;;;;;;;;;;;;;;;27.10;45.92;101124.31;10497760;28;19924;-61
2023/07/22 12:45:25;;;;;;;;;;;;;;;27.60;46.48;101123.47;10497565;28;20442;-61
2023/07/22 12:50:29;;;;;;;;;;;;;;;25.17;47.56;101142.50;10497459;28;19925;-61
2023/07/22 12:55:31;;;;;;;;;;;;;;;25.26;48.21;101132.59;10497322;28;19925;-61
2023/07/22 13:00:33;;;;;;;;;;;;;;;23.85;49.52;101125.94;10497256;28;19925;-61
2023/07/22 13:05:35;;;;;;;;;;;;;;;24.39;51.21;101124.53;10497136;28;20371;-61
2023/07/22 13:10:39;;;;;;;;;;;;;;;24.41;48.86;101122.53;10498613;28;19931;-61
2023/07/22 13:15:41;;;;;;;;;;;;;;;24.94;47.87;101114.84;10504472;28;20295;-62
2023/07/22 13:20:43;;;;;;;;;;;;;;;24.33;49.02;101111.88;10504562;28;20365;-63
2023/07/22 13:25:46;;;;;;;;;;;;;;;26.73;45.46;101108.22;10504185;28;19931;-60
2023/07/22 13:30:48;;;;;;;;;;;;;;;25.59;47.48;101090.34;10504019;28;19946;-61
2023/07/22 13:35:50;;;;;;;;;;;;;;;24.89;47.34;101103.81;10504142;28;19925;-61
2023/07/22 13:40:53;;;;;;;;;;;;;;;23.44;48.69;101109.03;10503668;28;19924;-61
2023/07/22 13:45:55;;;;;;;;;;;;;;;23.23;47.96;101101.47;10469298;28;19931;-60
2023/07/22 13:50:57;;;;;;;;;;;;;;;24.07;50.18;101102.19;10503324;28;20381;-61
2023/07/22 13:55:59;;;;;;;;;;;;;;;23.82;50.59;101096.03;10503116;28;19934;-61
2023/07/22 14:01:02;;;;;;;;;;;;;;;23.26;51.79;101098.47;10503134;28;19924;-61
2023/07/22 14:06:04;;;;;;;;;;;;;;;22.75;51.40;101093.13;10502736;28;20008;-61
2023/07/22 14:11:07;;;;;;;;;;;;;;;22.71;52.61;101099.75;10502553;28;20362;-61
2023/07/22 14:16:11;;;;;;;;;;;;;;;22.79;50.87;101100.63;10502330;28;19929;-61
2023/07/22 14:21:23;;;;;;;;;;;;;;;22.67;50.27;101090.41;10485850;28;20378;-61
2023/07/22 14:26:25;;;;;;;;;;;;;;;22.96;51.83;101084.66;10501844;28;19978;-61
2023/07/22 14:31:28;;;;;;;;;;;;;;;23.17;51.60;101074.41;10501722;28;20363;-61
2023/07/22 14:36:30;;;;;;;;;;;;;;;22.79;51.70;101084.59;10483750;28;19928;-61
2023/07/22 14:41:32;;;;;;;;;;;;;;;23.76;48.44;101067.28;10483558;28;20282;-61
2023/07/22 14:46:34;;;;;;;;;;;;;;;23.43;50.56;101060.06;10501216;28;19932;-61
2023/07/22 14:51:37;;;;;;;;;;;;;;;23.49;50.37;101064.78;10500913;28;19995;-61
2023/07/22 14:56:40;;;;;;;;;;;;;;;23.96;49.89;101063.28;10500819;28;19924;-61
2023/07/22 15:01:42;;;;;;;;;;;;;;;23.80;52.64;101064.09;10500547;28;19924;-61
2023/07/22 15:06:44;;;;;;;;;;;;;;;23.48;53.79;101062.25;10500197;28;19994;-61
2023/07/22 15:11:47;;;;;;;;;;;;;;;22.69;55.41;101064.41;10499994;28;20383;-61
2023/07/22 15:16:49;;;;;;;;;;;;;;;21.67;61.82;101064.94;10499721;28;20287;-61
2023/07/22 15:21:52;;;;;;;;;;;;;;;21.42;63.60;101071.03;10481937;28;19970;-61
2023/07/22 15:26:55;;;;;;;;;;;;;;;20.94;66.31;101073.84;10499380;28;19925;-60
2023/07/22 15:31:57;;;;;;;;;;;;;;;20.82;67.19;101083.03;10499341;28;19931;-61
2023/07/22 15:37:01;;;;;;;;;;;;;;;20.51;68.43;101080.63;10498138;28;20229;-61
2023/07/22 15:42:03;;;;;;;;;;;;;;;20.68;68.32;101089.69;10499063;28;19932;-61
2023/07/22 15:47:06;;;;;;;;;;;;;;;20.83;68.33;101094.50;10499088;28;19931;-61
2023/07/22 15:52:08;;;;;;;;;;;;;;;20.50;69.00;101094.06;10498765;28;20361;-61
2023/07/22 15:57:10;;;;;;;;;;;;;;;20.22;68.21;101096.66;10480995;28;19935;-60
2023/07/22 16:02:14;;;;;;;;;;;;;;;20.56;68.43;101085.47;10498564;28;20294;-61
2023/07/22 16:07:16;;;;;;;;;;;;;;;20.57;67.30;101080.00;10480918;28;19924;-61
2023/07/22 16:12:19;;;;;;;;;;;;;;;20.23;67.62;101069.94;10498505;28;19925;-61
2023/07/22 16:17:21;;;;;;;;;;;;;;;20.44;68.46;101071.53;10498159;28;20337;-61
2023/07/22 16:22:23;;;;;;;;;;;;;;;20.51;66.83;101077.97;10480633;28;19924;-61
2023/07/22 16:27:26;;;;;;;;;;;;;;;20.51;67.84;101069.13;10479885;28;20367;-61
2023/07/22 16:32:28;;;;;;;;;;;;;;;20.67;65.67;101072.03;10498100;28;19930;-62
2023/07/22 16:37:30;;;;;;;;;;;;;;;20.30;67.67;101069.34;10498009;28;19928;-61
2023/07/22 16:42:32;;;;;;;;;;;;;;;20.49;67.71;101063.94;10497816;28;19924;-61
2023/07/22 16:47:35;;;;;;;;;;;;;;;20.22;67.54;101068.28;10502570;28;19925;-61
2023/07/22 16:52:37;;;;;;;;;;;;;;;20.16;68.15;101068.84;10505553;28;19925;-61
2023/07/22 16:57:39;;;;;;;;;;;;;;;20.24;68.07;101062.81;10505568;28;19931;-62
2023/07/22 17:02:42;;;;;;;;;;;;;;;20.01;68.48;101062.31;10487552;28;19924;-61
2023/07/22 17:07:46;;;;;;;;;;;;;;;20.19;69.44;101062.38;10487281;28;19928;-61
2023/07/22 17:12:48;;;;;;;;;;;;;;;20.32;67.45;101062.06;10504871;28;19970;-62
2023/07/22 17:17:50;;;;;;;;;;;;;;;20.49;66.98;101050.66;10504545;28;19935;-62
2023/07/22 17:22:52;;;;;;;;;;;;;;;20.26;66.61;101054.66;10504642;28;20131;-62
2023/07/22 17:27:55;;;;;;;;;;;;;;;20.34;66.84;101045.00;10504004;28;19924;-62
2023/07/22 17:32:57;;;;;;;;;;;;;;;19.89;69.02;101050.13;10504189;28;19931;-61
2023/07/22 17:37:59;;;;;;;;;;;;;;;20.14;67.83;101032.72;10503938;28;19924;-60
2023/07/22 17:43:01;;;;;;;;;;;;;;;19.95;68.78;101021.19;10503657;28;20015;-61
2023/07/22 17:48:04;;;;;;;;;;;;;;;20.12;67.18;101022.25;10503523;28;19950;-61
2023/07/22 17:53:07;;;;;;;;;;;;;;;20.21;68.01;101016.06;10503129;28;19925;-61
2023/07/22 17:58:10;;;;;;;;;;;;;;;20.16;65.45;101014.84;10502825;28;20019;-61
2023/07/22 18:03:12;;;;;;;;;;;;;;;20.05;66.09;101021.16;10502923;28;20286;-61
2023/07/22 18:08:14;;;;;;;;;;;;;;;20.04;64.89;101022.16;10502705;28;19924;-61
2023/07/22 18:13:16;;;;;;;;;;;;;;;20.22;64.23;101017.75;10502412;28;19925;-61
2023/07/22 18:18:19;;;;;;;;;;;;;;;19.99;63.59;101017.28;10502271;28;20359;-61
2023/07/22 18:23:21;;;;;;;;;;;;;;;19.76;64.77;101022.06;10502308;28;19931;-61
2023/07/22 18:28:24;;;;;;;;;;;;;;;19.36;64.31;101022.22;10501800;28;19930;-61
2023/07/22 18:33:26;;;;;;;;;;;;;;;19.31;64.11;101033.25;10483876;28;19925;-60
2023/07/22 18:38:29;;;;;;;;;;;;;;;19.38;64.82;101029.03;10501491;28;20381;-61
2023/07/22 18:43:31;;;;;;;;;;;;;;;18.75;67.90;101038.16;10501237;28;19931;-61
2023/07/22 18:48:33;;;;;;;;;;;;;;;18.69;70.21;101041.38;10501025;28;20287;-61
2023/07/22 18:53:36;;;;;;;;;;;;;;;18.63;70.69;101036.59;10483006;28;19946;-61
2023/07/22 18:58:38;;;;;;;;;;;;;;;18.32;76.16;101039.25;10500887;28;19952;-61
2023/07/22 19:03:40;;;;;;;;;;;;;;;18.31;76.75;101045.53;10500388;28;20260;-61
2023/07/22 19:08:42;;;;;;;;;;;;;;;18.25;74.23;101040.75;10499582;28;20008;-61
2023/07/22 19:13:45;;;;;;;;;;;;;;;18.24;75.20;101049.69;10500143;28;19924;-60
2023/07/22 19:18:47;;;;;;;;;;;;;;;17.90;78.54;101049.06;10465650;28;19925;-60
2023/07/22 19:23:49;;;;;;;;;;;;;;;17.77;83.24;101044.78;10499901;28;19924;-60
2023/07/22 19:28:52;;;;;;;;;;;;;;;17.42;87.31;101061.78;10499282;28;19925;-60
2023/07/22 19:33:54;;;;;;;;;;;;;;;17.46;88.57;101070.31;10499116;28;19964;-61
2023/07/22 19:38:56;;;;;;;;;;;;;;;17.27;93.21;101070.97;10499054;28;19964;-61
2023/07/22 19:43:58;;;;;;;;;;;;;;;17.27;92.13;101069.16;10499008;28;19939;-61
2023/07/22 19:49:01;;;;;;;;;;;;;;;17.23;93.19;101061.59;10499098;28;19935;-61
2023/07/22 19:54:03;;;;;;;;;;;;;;;17.09;96.34;101052.97;10498792;28;19924;-61
2023/07/22 19:59:05;;;;;;;;;;;;;;;16.99;96.48;101061.78;10498600;28;20367;-61
2023/07/22 20:04:07;;;;;;;;;;;;;;;17.09;98.96;101046.84;10498538;28;19959;-61
2023/07/22 20:09:10;;;;;;;;;;;;;;;16.56;100.00;101054.56;10498415;28;19928;-61
2023/07/22 20:14:12;;;;;;;;;;;;;;;16.57;100.00;101043.88;10498366;28;19931;-61
2023/07/22 20:19:14;;;;;;;;;;;;;;;16.30;100.00;101050.38;10499650;28;19924;-61
2023/07/22 20:24:16;;;;;;;;;;;;;;;16.23;100.00;101043.06;10512033;28;19975;-61
2023/07/22 20:29:19;;;;;;;;;;;;;;;16.16;100.00;101050.59;10511427;28;19956;-61
2023/07/22 20:34:21;;;;;;;;;;;;;;;16.02;100.00;101050.81;10511628;28;20395;-60
2023/07/22 20:39:23;;;;;;;;;;;;;;;16.39;100.00;101054.13;10511736;28;19924;-61
2023/07/22 20:44:25;;;;;;;;;;;;;;;16.20;100.00;101044.13;10511407;28;19924;-61
2023/07/22 20:49:28;;;;;;;;;;;;;;;16.24;100.00;101048.22;10511577;28;19931;-61
2023/07/22 20:54:30;;;;;;;;;;;;;;;16.31;100.00;101054.69;10511138;28;19924;-62
2023/07/22 20:59:32;;;;;;;;;;;;;;;16.59;100.00;101054.34;10511206;28;20279;-61
2023/07/22 21:04:34;;;;;;;;;;;;;;;16.32;100.00;101053.75;10511348;28;19931;-62
2023/07/22 21:09:36;;;;;;;;;;;;;;;16.24;100.00;101048.22;10493244;28;19939;-62
2023/07/22 21:14:39;;;;;;;;;;;;;;;16.31;100.00;101045.94;10510984;28;19924;-62
2023/07/22 21:19:41;;;;;;;;;;;;;;;16.02;100.00;101034.97;10510913;28;19931;-62
2023/07/22 21:24:43;;;;;;;;;;;;;;;16.12;100.00;101030.66;10511039;28;19931;-62
2023/07/22 21:29:46;;;;;;;;;;;;;;;16.14;100.00;101032.22;10510512;28;19925;-62
2023/07/22 21:34:48;;;;;;;;;;;;;;;16.14;100.00;101031.41;10503639;28;19931;-61
2023/07/22 21:39:50;;;;;;;;;;;;;;;15.81;100.00;101018.97;10503761;28;19946;-61
2023/07/22 21:44:52;;;;;;;;;;;;;;;15.71;100.00;101030.19;10485939;28;19924;-61
2023/07/22 21:49:54;;;;;;;;;;;;;;;15.82;100.00;101025.94;10503644;28;19925;-61
2023/07/22 21:54:57;;;;;;;;;;;;;;;15.76;100.00;101022.78;10503260;28;19925;-61
2023/07/22 21:59:59;;;;;;;;;;;;;;;16.04;100.00;101030.41;10503084;28;19924;-61
2023/07/22 22:05:01;;;;;;;;;;;;;;;15.88;100.00;101026.31;10502823;28;20007;-62
2023/07/22 22:10:05;;;;;;;;;;;;;;;15.94;100.00;101017.09;10502732;28;19995;-61
2023/07/22 22:15:07;;;;;;;;;;;;;;;15.79;100.00;101011.16;10484804;28;20007;-61
2023/07/22 22:20:10;;;;;;;;;;;;;;;16.20;100.00;101006.31;10502329;28;19932;-61
2023/07/22 22:25:12;;;;;;;;;;;;;;;16.23;100.00;100998.97;10502028;28;20279;-61
2023/07/22 22:30:14;;;;;;;;;;;;;;;15.87;100.00;100995.59;10501690;28;20287;-60
2023/07/22 22:35:16;;;;;;;;;;;;;;;15.95;100.00;100995.00;10501643;28;20019;-61
2023/07/22 22:40:18;;;;;;;;;;;;;;;16.20;100.00;100983.34;10501426;28;19930;-61
2023/07/22 22:45:21;;;;;;;;;;;;;;;16.05;100.00;100977.47;10500131;28;19930;-61
2023/07/22 22:50:24;;;;;;;;;;;;;;;15.93;100.00;100962.59;10483299;28;20016;-62
2023/07/22 22:55:26;;;;;;;;;;;;;;;15.89;100.00;100967.25;10500767;28;19925;-61
2023/07/22 23:00:30;;;;;;;;;;;;;;;16.00;100.00;100962.94;10500876;28;19924;-62
2023/07/22 23:05:32;;;;;;;;;;;;;;;15.84;100.00;100958.88;10500435;28;19946;-61
2023/07/22 23:10:34;;;;;;;;;;;;;;;15.80;100.00;100952.13;10500143;28;20007;-61
2023/07/22 23:15:36;;;;;;;;;;;;;;;15.79;100.00;100937.25;10499852;28;20323;-61
2023/07/22 23:20:39;;;;;;;;;;;;;;;15.72;100.00;100938.66;10499750;28;20295;-61
2023/07/22 23:25:41;;;;;;;;;;;;;;;15.60;100.00;100924.59;10499863;28;19928;-61
2023/07/22 23:30:43;;;;;;;;;;;;;;;15.45;100.00;100916.06;10499336;28;19932;-61
2023/07/22 23:35:50;;;;;;;;;;;;;;;15.51;100.00;100904.19;10481439;28;20274;-61
2023/07/22 23:40:53;;;;;;;;;;;;;;;15.64;100.00;100909.38;10499351;28;19925;-61
2023/07/22 23:45:55;;;;;;;;;;;;;;;15.53;100.00;100902.28;10481305;28;19928;-61
2023/07/22 23:50:58;;;;;;;;;;;;;;;15.59;100.00;100896.53;10498832;28;20436;-61
2023/07/22 23:56:00;;;;;;;;;;;;;;;15.74;100.00;100876.88;10498277;28;19924;-61
